Date,TemperatureHighF,TemperatureAvgF,TemperatureLowF,DewpointHighF,DewpointAvgF,DewpointLowF,HumidityHigh,HumidityAvg,HumidityLow,PressureMaxIn,PressureMinIn,WindSpeedMaxMPH,WindSpeedAvgMPH,GustSpeedMaxMPH,PrecipitationSumIn
2013-11-1,56,53,50,56,53,50,99,99,99,29.93,29.57,13,5,13,0.01
2013-11-2,57,52,48,56,52,48,99,99,99,29.56,29.35,17,4,17,0.39
2013-11-3,56,50,47,53,50,47,99,98,87,29.45,29.32,16,8,21,0.13
2013-11-4,55,48,46,55,48,44,99,98,89,29.31,28.84,17,6,21,0.99
2013-11-5,50,46,42,50,45,42,99,99,99,29.35,29.10,11,5,20,0.30
2013-11-6,57,51,40,57,51,40,99,99,99,29.46,29.26,14,5,17,0.20
2013-11-7,58,54,50,58,53,50,99,99,99,29.67,29.41,15,4,17,0.31
2013-11-8,55,49,38,55,49,38,99,99,99,29.70,29.44,8,2,8,0.35
2013-11-9,54,48,44,52,48,43,99,98,89,29.69,29.42,16,6,17,0.56
2013-11-10,53,44,38,52,44,37,99,98,85,30.13,29.48,12,2,13,0.15
2013-11-11,53,46,35,52,44,35,99,95,86,30.27,30.13,9,3,11,0.01
2013-11-12,50,47,45,50,47,44,99,98,89,30.30,30.09,11,4,14,0.11
2013-11-13,59,45,34,59,44,34,99,96,77,30.41,30.20,6,1,8,0.00
2013-11-14,49,46,44,49,46,44,99,99,99,30.20,29.91,7,3,12,0.31
2013-11-15,57,46,37,54,45,37,99,98,86,30.39,30.09,6,2,10,0.00
2013-11-16,44,42,38,43,42,38,99,99,99,30.39,30.25,4,2,6,0.04
2013-11-17,46,44,42,46,44,42,99,99,99,30.25,29.96,4,1,6,0.01
2013-11-18,45,43,41,45,43,41,99,99,99,29.96,29.62,9,3,11,0.00
2013-11-19,50,43,21,50,42,21,99,99,99,29.78,29.56,8,3,10,0.19
2013-11-20,47,39,33,45,38,33,99,97,87,29.78,29.25,13,5,15,0.25
2013-11-21,43,38,35,42,38,35,99,99,97,29.71,29.25,11,5,14,0.01
2013-11-22,44,40,34,44,40,34,99,99,99,29.94,29.71,10,3,11,0.00
2013-11-23,48,42,39,46,41,38,99,98,92,30.09,29.93,7,3,10,0.00
2013-11-24,51,45,41,51,44,41,99,97,85,30.32,30.08,9,3,11,0.28
2013-11-25,50,44,41,45,42,40,99,95,80,30.45,30.31,8,3,14,0.00
2013-11-26,53,44,28,53,43,27,99,98,91,30.49,30.43,7,2,124,0.00
2013-11-27,50,44,38,50,43,37,99,99,90,30.43,30.38,8,2,9,0.00
2013-11-28,51,48,45,51,48,45,99,99,99,30.41,30.37,4,1,8,0.04
2013-11-29,48,46,42,48,45,42,99,98,90,30.38,29.85,19,5,21,0.20
2013-11-30,55,45,39,52,44,38,99,97,84,30.27,29.83,9,3,11,0.08